Kayseri, Turkey

5:34 AM EEST on October 21, 2014 (GMT +0300)
Erkilet Air Base | Change Station
CLOSE
Current Station
Airport
Location: Kayseri,
Elevation: 3455 ft
Nearby Weather Stations

Elev 3455 ft 38.77 °N, 35.50 °E | Updated 14 minutes ago

Clear
Clear
28 °F
Feels Like 28 °F
N
0
Wind Variable Wind from North

Today
High -- | Low -- °F
--% Chance of Precip.
Yesterday
High -- | Low -- °F
Precip. -- in
6:53 AM 5:51 PM
Waning Crescent, 8% visible
Pressure 30.12 in
Visibility -9999.0 miles
Clouds
Dew Point 27 °F
Humidity 93%
Rainfall 0.00 in
Snow Depth Not available.
UV Not available.
Pollen Not available.
Air Quality Not available.
Flu Activity Not available.
METAR LTAU 210220Z 00000KT CAVOK M02/M03 Q1020 NOSIG RMK RWY07 08001KT

More Conditions Fewer Conditions

Pressure 30.12 in
Visibility -9999.0 miles
Clouds
Dew Point 27 °F
Humidity 93%
Rainfall 0.00 in
Snow Depth Not available.
UV Not available.
Pollen Not available.
Air Quality Not available.
Flu Activity Not available.
METAR LTAU 210220Z 00000KT CAVOK M02/M03 Q1020 NOSIG RMK RWY07 08001KT

More Conditions Fewer Conditions

10-Day Weather Forecast

Almanac

Astronomy

Oct. 21, 2014 Rise Set
Actual Time 6:53 AM EEST 5:51 PM EEST
Civil Twilight 6:26 AM EEST 6:18 PM EEST
Nautical Twilight 5:55 AM EEST 6:49 PM EEST
Astronomical Twilight 5:24 AM EEST 7:20 PM EEST
Moon 4:19 AM EEST 4:33 PM EEST
Length of Visible Light 11h 52m
Length of Day
10h 58m
Tomorrow will be 2m 22s shorter.
Waning Crescent, 8% of the Moon is Illuminated
Oct 20
Waning Crescent
Oct 23
New
Oct 30
First Quarter
Nov 6
Full
Nov 14
Last Quarter

Yesterday's Extremes

Country Highs Country Lows

Community

WunderPhotos

Upload Photos

1,763,577 photos uploaded!

Nearby

Snow Depth

Not available.

Earthquake Activity

City Distance Mag. Time & Date
No recent earthquake activity has been reported nearby.
Minimum magnitude displayed is 2.5.

Coastal Water Temperatures

Place Temperature
No Stations Reporting

Nearby Weather Stations